Time;durP1;ratioP1;P1;durP2;ratioP2;P2;SDS_P1;SDS_P2;PMS_P1;PMS_P2;Temp;Humidity;BMP_temperature;BMP_pressure;BME280_temperature;BME280_humidity;BME280_pressure;Samples;Min_cycle;Max_cycle;Signal;HPM_P1;HPM_P2
2024/01/23 00:01:56;;;;;;;;;;;;;;;25.69;38.92;95083.41;4936868;29;7093;-38
2024/01/23 00:04:46;;;;;;;;;;;;;;;25.69;38.25;95077.91;4935316;29;9075;-38
2024/01/23 00:07:12;;;;;;;;;;;;;;;25.69;38.75;95075.16;4944620;28;7668;-38
2024/01/23 00:09:45;;;;;;;;;;;;;;;25.66;38.07;95067.88;4939888;28;9124;-37
2024/01/23 00:12:11;;;;;;;;;;;;;;;25.69;38.63;95055.09;4961801;28;7481;-38
2024/01/23 00:14:36;;;;;;;;;;;;;;;25.72;38.09;95060.38;4993772;28;6970;-38
2024/01/23 00:17:07;;;;;;;;;;;;;;;25.70;38.47;95065.66;5020823;28;7212;-37
2024/01/23 00:19:33;;;;;;;;;;;;;;;25.68;38.08;95079.16;5031410;28;9035;-43
2024/01/23 00:22:02;;;;;;;;;;;;;;;25.67;38.68;95087.91;5025399;28;7263;-43
2024/01/23 00:24:39;;;;;;;;;;;;;;;25.68;38.15;95087.44;5035810;28;7030;-43
2024/01/23 00:27:10;;;;;;;;;;;;;;;25.66;38.13;95081.66;5026043;28;6982;-42
2024/01/23 00:29:42;;;;;;;;;;;;;;;25.64;38.28;95078.66;5052449;28;8752;-42
2024/01/23 00:32:20;;;;;;;;;;;;;;;25.64;38.50;95081.41;5043312;28;7247;-41
2024/01/23 00:34:46;;;;;;;;;;;;;;;25.61;38.31;95084.38;5041496;28;7211;-46
2024/01/23 00:37:14;;;;;;;;;;;;;;;25.63;37.99;95095.66;5020141;28;9307;-42
2024/01/23 00:39:40;;;;;;;;;;;;;;;25.62;38.27;95091.41;5025374;28;7070;-42
2024/01/23 00:42:07;;;;;;;;;;;;;;;25.63;38.53;95085.38;5026506;28;8365;-42
2024/01/23 00:44:34;;;;;;;;;;;;;;;25.62;38.17;95092.13;5058851;28;7252;-42
2024/01/23 00:47:02;;;;;;;;;;;;;;;25.62;38.67;95097.66;5055274;28;8702;-41
2024/01/23 00:49:28;;;;;;;;;;;;;;;25.62;38.44;95096.91;5035486;28;7164;-42
2024/01/23 00:51:54;;;;;;;;;;;;;;;25.58;38.37;95112.94;5055133;28;8695;-42
2024/01/23 00:54:20;;;;;;;;;;;;;;;25.60;37.97;95105.66;5040999;28;9811;-43
2024/01/23 00:56:46;;;;;;;;;;;;;;;25.59;37.66;95098.66;5056915;28;7205;-43
2024/01/23 00:59:12;;;;;;;;;;;;;;;25.59;38.53;95101.41;5031081;28;7188;-42
2024/01/23 01:01:39;;;;;;;;;;;;;;;25.60;38.05;95088.41;5021186;28;7331;-41
2024/01/23 01:04:14;;;;;;;;;;;;;;;25.58;38.00;95083.34;5069409;28;9071;-42
2024/01/23 01:06:50;;;;;;;;;;;;;;;25.59;37.99;95093.16;5042318;28;9236;-42
2024/01/23 01:09:19;;;;;;;;;;;;;;;25.56;38.06;95083.09;5037546;28;9154;-41
2024/01/23 01:11:51;;;;;;;;;;;;;;;25.58;38.29;95085.38;5048103;28;7240;-42
2024/01/23 01:14:25;;;;;;;;;;;;;;;25.60;38.06;95086.38;5016568;28;9082;-43
2024/01/23 01:16:52;;;;;;;;;;;;;;;25.57;38.31;95079.09;5011036;28;6981;-43
2024/01/23 01:19:32;;;;;;;;;;;;;;;25.59;38.41;95073.09;5046840;28;7235;-43
2024/01/23 01:22:10;;;;;;;;;;;;;;;25.58;37.78;95080.59;5032993;28;7372;-41
2024/01/23 01:24:50;;;;;;;;;;;;;;;25.55;38.02;95070.59;5050986;28;8809;-41
2024/01/23 01:27:19;;;;;;;;;;;;;;;25.56;37.98;95065.81;5033146;28;7314;-42
2024/01/23 01:29:55;;;;;;;;;;;;;;;25.55;38.52;95065.09;5048891;28;7331;-56
2024/01/23 01:32:32;;;;;;;;;;;;;;;25.56;37.92;95061.06;5027939;28;7216;-56
2024/01/23 01:35:01;;;;;;;;;;;;;;;25.55;38.30;95070.59;5035132;28;9097;-56
2024/01/23 01:38:01;;;;;;;;;;;;;;;25.56;38.46;95074.06;5053635;28;8966;-56
2024/01/23 01:40:29;;;;;;;;;;;;;;;25.57;38.34;95078.34;5025526;28;7161;-57
2024/01/23 01:42:55;;;;;;;;;;;;;;;25.56;38.26;95071.31;5008672;28;9467;-57
2024/01/23 01:45:21;;;;;;;;;;;;;;;25.54;38.14;95074.56;5031446;28;7571;-56
2024/01/23 01:47:47;;;;;;;;;;;;;;;25.56;38.06;95093.34;5003041;28;8743;-57
2024/01/23 01:50:14;;;;;;;;;;;;;;;25.54;38.09;95090.34;5017988;28;7154;-57
2024/01/23 01:52:55;;;;;;;;;;;;;;;25.56;37.85;95093.34;5013484;28;8786;-56
2024/01/23 01:56:05;;;;;;;;;;;;;;;25.56;38.31;95096.88;5027334;28;8323;-56
2024/01/23 01:58:32;;;;;;;;;;;;;;;25.54;37.96;95117.88;4999551;28;9472;-57
2024/01/23 02:01:00;;;;;;;;;;;;;;;25.53;38.00;95119.91;5007854;28;7373;-56
2024/01/23 02:03:28;;;;;;;;;;;;;;;25.54;37.95;95126.16;5015936;28;7317;-56
2024/01/23 02:06:07;;;;;;;;;;;;;;;25.52;38.37;95125.91;5015889;28;9192;-56
2024/01/23 02:08:38;;;;;;;;;;;;;;;25.49;38.15;95116.63;4998317;28;9100;-56
2024/01/23 02:11:14;;;;;;;;;;;;;;;25.54;38.47;95134.41;5011805;28;9161;-56
2024/01/23 02:13:50;;;;;;;;;;;;;;;25.54;37.56;95140.69;5004218;28;7209;-57
2024/01/23 02:16:18;;;;;;;;;;;;;;;25.54;38.41;95139.94;5000165;28;7282;-57
2024/01/23 02:18:47;;;;;;;;;;;;;;;25.53;38.34;95144.72;5044239;28;7001;-56
2024/01/23 02:21:15;;;;;;;;;;;;;;;25.50;38.15;95142.16;5032646;28;8729;-56
2024/01/23 02:23:47;;;;;;;;;;;;;;;25.51;37.54;95155.47;5028243;28;7210;-56
2024/01/23 02:26:39;;;;;;;;;;;;;;;25.53;37.86;95161.22;5051007;28;7344;-57
2024/01/23 02:29:21;;;;;;;;;;;;;;;25.53;38.09;95169.50;5028287;28;9195;-56
2024/01/23 02:32:32;;;;;;;;;;;;;;;25.53;37.61;95161.22;5015504;28;7058;-56
2024/01/23 02:35:28;;;;;;;;;;;;;;;25.52;38.36;95167.22;5011334;28;9551;-56
2024/01/23 02:37:54;;;;;;;;;;;;;;;25.52;38.14;95169.97;4955507;28;7020;-56
2024/01/23 02:40:23;;;;;;;;;;;;;;;25.52;37.89;95167.22;4966912;28;9206;-40
2024/01/23 02:42:49;;;;;;;;;;;;;;;25.52;37.58;95176.25;4961606;28;8765;-41
2024/01/23 02:45:14;;;;;;;;;;;;;;;25.50;37.35;95180.72;4966028;28;8081;-41
2024/01/23 02:47:40;;;;;;;;;;;;;;;25.51;38.41;95196.78;4969788;28;7234;-41
2024/01/23 02:50:08;;;;;;;;;;;;;;;25.48;37.81;95177.72;4980943;28;7464;-41
2024/01/23 02:52:45;;;;;;;;;;;;;;;25.48;37.96;95180.47;4977052;28;9147;-42
2024/01/23 02:55:13;;;;;;;;;;;;;;;25.47;37.58;95184.47;4968427;28;9169;-40
2024/01/23 02:58:12;;;;;;;;;;;;;;;25.50;37.41;95194.50;4971867;28;8667;-41
2024/01/23 03:00:55;;;;;;;;;;;;;;;25.51;38.46;95190.50;4918288;29;9018;-42
2024/01/23 03:03:25;;;;;;;;;;;;;;;25.49;38.31;95199.25;4916089;29;9087;-40
2024/01/23 03:05:54;;;;;;;;;;;;;;;25.51;37.58;95207.78;4904381;29;7241;-41
2024/01/23 03:08:41;;;;;;;;;;;;;;;25.50;37.40;95214.53;4926457;29;9188;-41
2024/01/23 03:11:16;;;;;;;;;;;;;;;25.50;38.27;95206.28;4916266;29;9126;-40
2024/01/23 03:13:42;;;;;;;;;;;;;;;25.50;38.31;95222.03;4939679;28;9098;-40
2024/01/23 03:16:11;;;;;;;;;;;;;;;25.49;37.50;95213.00;4959280;28;7241;-41
2024/01/23 03:18:48;;;;;;;;;;;;;;;25.49;38.52;95202.00;4976963;28;9365;-41
2024/01/23 03:21:24;;;;;;;;;;;;;;;25.51;37.66;95196.78;4953708;29;7088;-41
2024/01/23 03:24:06;;;;;;;;;;;;;;;25.50;38.12;95194.50;4956445;28;9069;-41
2024/01/23 03:26:47;;;;;;;;;;;;;;;25.47;37.67;95185.22;4988468;28;9454;-42
2024/01/23 03:29:42;;;;;;;;;;;;;;;25.48;37.66;95189.50;4977100;28;7357;-41
2024/01/23 03:32:24;;;;;;;;;;;;;;;25.48;38.21;95181.22;4990260;28;7357;-41
2024/01/23 03:34:52;;;;;;;;;;;;;;;25.49;37.51;95185.47;4961025;28;9313;-41
2024/01/23 03:37:31;;;;;;;;;;;;;;;25.49;37.51;95193.72;5015614;28;7124;-41
2024/01/23 03:40:08;;;;;;;;;;;;;;;25.46;37.89;95182.97;5032683;28;7068;-41
2024/01/23 03:42:41;;;;;;;;;;;;;;;25.47;38.31;95182.47;5034163;28;7030;-40
2024/01/23 03:45:08;;;;;;;;;;;;;;;25.47;38.13;95179.69;5037612;28;7124;-43
2024/01/23 03:47:35;;;;;;;;;;;;;;;25.46;38.22;95183.72;5047978;28;7163;-42
2024/01/23 03:50:03;;;;;;;;;;;;;;;25.45;37.91;95181.47;5027469;28;7140;-42
2024/01/23 03:52:31;;;;;;;;;;;;;;;25.48;38.10;95195.00;5047734;28;8802;-42
2024/01/23 03:55:14;;;;;;;;;;;;;;;25.56;37.77;95182.25;5028881;28;6983;-41
2024/01/23 03:57:42;;;;;;;;;;;;;;;25.56;37.62;95176.75;5037284;28;7241;-42
2024/01/23 04:00:29;;;;;;;;;;;;;;;25.53;37.28;95186.03;5028577;28;8732;-42
2024/01/23 04:03:09;;;;;;;;;;;;;;;25.50;37.24;95200.00;5049294;28;9108;-42
2024/01/23 04:06:12;;;;;;;;;;;;;;;25.52;37.84;95200.25;5040154;28;7261;-42
2024/01/23 04:08:40;;;;;;;;;;;;;;;25.51;37.57;95207.03;5049572;28;8091;-43
2024/01/23 04:11:13;;;;;;;;;;;;;;;25.48;37.73;95205.25;5030444;28;9114;-42
2024/01/23 04:13:49;;;;;;;;;;;;;;;25.49;38.29;95207.50;5064407;28;7373;-42
2024/01/23 04:17:04;;;;;;;;;;;;;;;25.49;38.12;95201.25;5045970;28;7234;-43
2024/01/23 04:19:30;;;;;;;;;;;;;;;25.48;37.67;95210.75;4994855;28;8707;-42
2024/01/23 04:21:56;;;;;;;;;;;;;;;25.47;38.01;95204.50;4982436;28;7207;-42
2024/01/23 04:24:24;;;;;;;;;;;;;;;25.46;37.41;95197.47;4978579;28;6955;-44
2024/01/23 04:26:53;;;;;;;;;;;;;;;25.47;37.34;95187.22;4992786;28;9160;-42
2024/01/23 04:29:21;;;;;;;;;;;;;;;25.47;37.88;95201.72;4974523;28;7263;-42
2024/01/23 04:31:48;;;;;;;;;;;;;;;25.45;38.02;95215.25;4975405;28;8489;-42
2024/01/23 04:34:17;;;;;;;;;;;;;;;25.46;37.54;95227.78;4970439;28;7181;-42
2024/01/23 04:36:48;;;;;;;;;;;;;;;25.47;37.64;95223.03;4994624;28;7242;-43
2024/01/23 04:39:34;;;;;;;;;;;;;;;25.48;37.44;95235.56;4994755;28;7574;-42
2024/01/23 04:42:14;;;;;;;;;;;;;;;25.47;38.07;95234.78;4975575;28;7407;-42
2024/01/23 04:44:39;;;;;;;;;;;;;;;25.48;37.66;95232.78;4982788;28;7255;-43
2024/01/23 04:47:05;;;;;;;;;;;;;;;25.46;38.12;95230.53;4986336;28;7254;-42
2024/01/23 04:49:31;;;;;;;;;;;;;;;25.44;37.30;95222.00;4975514;28;7038;-42
2024/01/23 04:52:10;;;;;;;;;;;;;;;25.46;38.05;95222.28;4970562;28;7201;-42
2024/01/23 04:54:41;;;;;;;;;;;;;;;25.46;37.34;95216.00;4958695;28;7281;-42
2024/01/23 04:57:14;;;;;;;;;;;;;;;25.46;37.40;95216.75;5026798;28;7022;-42
2024/01/23 05:00:09;;;;;;;;;;;;;;;25.47;38.15;95240.28;5036097;28;9050;-56
2024/01/23 05:02:49;;;;;;;;;;;;;;;25.45;37.61;95242.78;5025352;28;8723;-56
2024/01/23 05:05:17;;;;;;;;;;;;;;;25.47;38.06;95239.56;5037562;28;9554;-56
2024/01/23 05:07:56;;;;;;;;;;;;;;;25.48;37.75;95252.06;5022610;28;7036;-56
2024/01/23 05:10:27;;;;;;;;;;;;;;;25.47;37.56;95256.81;5044693;28;7278;-56
2024/01/23 05:13:28;;;;;;;;;;;;;;;25.46;38.21;95262.81;5042018;28;9395;-56
2024/01/23 05:16:08;;;;;;;;;;;;;;;25.46;37.79;95255.31;5018953;28;6995;-56
2024/01/23 05:18:36;;;;;;;;;;;;;;;25.43;37.30;95259.03;5030404;28;9090;-57
2024/01/23 05:21:08;;;;;;;;;;;;;;;25.45;37.65;95261.34;5022534;28;7630;-57
2024/01/23 05:23:34;;;;;;;;;;;;;;;25.42;37.53;95272.06;5011810;28;7276;-57
2024/01/23 05:26:16;;;;;;;;;;;;;;;25.45;37.60;95270.31;5015950;28;7278;-57
2024/01/23 05:28:43;;;;;;;;;;;;;;;25.46;37.42;95273.84;5041932;28;7236;-56
2024/01/23 05:31:29;;;;;;;;;;;;;;;25.46;38.09;95276.59;5033028;28;7096;-57
2024/01/23 05:34:22;;;;;;;;;;;;;;;25.45;37.89;95270.31;5017651;28;7073;-57
2024/01/23 05:37:25;;;;;;;;;;;;;;;25.45;37.28;95284.09;5031287;28;7450;-56
2024/01/23 05:40:09;;;;;;;;;;;;;;;25.44;37.75;95274.34;4965924;28;6983;-57
2024/01/23 05:42:54;;;;;;;;;;;;;;;25.46;37.98;95293.88;4958807;28;7908;-57
2024/01/23 05:45:20;;;;;;;;;;;;;;;25.43;37.90;95301.13;4956595;28;8702;-57
2024/01/23 05:47:48;;;;;;;;;;;;;;;25.46;37.76;95304.91;4989637;28;7422;-56
2024/01/23 05:50:13;;;;;;;;;;;;;;;25.46;37.59;95309.66;4960781;28;9251;-57
2024/01/23 05:52:41;;;;;;;;;;;;;;;25.42;37.54;95309.88;4953916;28;7197;-56
2024/01/23 05:55:18;;;;;;;;;;;;;;;25.47;39.65;95303.66;4956582;28;7189;-55
2024/01/23 05:57:54;;;;;;;;;;;;;;;25.54;38.24;95311.47;4938628;28;8997;-56
2024/01/23 06:00:21;;;;;;;;;;;;;;;25.58;38.22;95314.03;4955458;28;7209;-52
2024/01/23 06:02:58;;;;;;;;;;;;;;;25.62;37.73;95317.31;4960355;28;7512;-42
2024/01/23 06:05:54;;;;;;;;;;;;;;;25.61;37.55;95311.03;4954936;28;7264;-41
2024/01/23 06:08:52;;;;;;;;;;;;;;;25.58;38.63;95311.28;4962063;28;7549;-42
2024/01/23 06:11:40;;;;;;;;;;;;;;;25.57;38.32;95315.25;4946015;28;6992;-40
2024/01/23 06:14:33;;;;;;;;;;;;;;;25.57;38.71;95305.00;4990733;28;7018;-42
2024/01/23 06:17:14;;;;;;;;;;;;;;;25.55;38.64;95312.22;5011710;28;9051;-41
2024/01/23 06:20:05;;;;;;;;;;;;;;;25.59;39.29;95326.53;4999395;28;7412;-39
2024/01/23 06:22:46;;;;;;;;;;;;;;;25.61;39.06;95333.06;4999235;28;7333;-40
2024/01/23 06:25:16;;;;;;;;;;;;;;;25.67;39.12;95352.41;5019948;28;8595;-40
2024/01/23 06:27:43;;;;;;;;;;;;;;;25.67;38.63;95350.41;5002759;28;8715;-42
2024/01/23 06:30:20;;;;;;;;;;;;;;;25.70;38.55;95356.94;5011945;28;7333;-41
2024/01/23 06:33:33;;;;;;;;;;;;;;;25.71;38.92;95367.47;5020283;28;8827;-40
2024/01/23 06:36:09;;;;;;;;;;;;;;;25.73;38.62;95373.25;5001927;28;7408;-39
2024/01/23 06:38:45;;;;;;;;;;;;;;;25.68;38.10;95365.69;4998883;28;7176;-39
2024/01/23 06:41:11;;;;;;;;;;;;;;;25.71;37.59;95386.75;4982556;28;7307;-40
2024/01/23 06:43:39;;;;;;;;;;;;;;;25.75;37.92;95403.81;4976261;28;7219;-40
2024/01/23 06:46:05;;;;;;;;;;;;;;;25.74;38.24;95410.59;4993452;28;7163;-40
2024/01/23 06:48:31;;;;;;;;;;;;;;;25.68;37.55;95417.28;5009079;28;8945;-40
2024/01/23 06:51:10;;;;;;;;;;;;;;;25.71;37.42;95419.81;4989785;28;8807;-41
2024/01/23 06:53:52;;;;;;;;;;;;;;;25.69;38.27;95425.06;4995648;28;9465;-41
2024/01/23 06:56:42;;;;;;;;;;;;;;;25.69;38.36;95430.56;4981605;28;9203;-40
2024/01/23 06:59:19;;;;;;;;;;;;;;;25.68;38.14;95426.31;5001788;28;9029;-40
2024/01/23 07:02:01;;;;;;;;;;;;;;;25.70;37.48;95439.59;5013520;28;8727;-41
2024/01/23 07:04:54;;;;;;;;;;;;;;;25.73;37.68;95449.66;5005695;28;9147;-40
2024/01/23 07:07:31;;;;;;;;;;;;;;;25.70;37.85;95456.13;4982213;28;6998;-40
2024/01/23 07:09:58;;;;;;;;;;;;;;;25.72;38.38;95476.47;4992412;28;7197;-37
2024/01/23 07:12:28;;;;;;;;;;;;;;;25.75;37.48;95486.50;5006301;28;7277;-37
2024/01/23 07:15:21;;;;;;;;;;;;;;;25.75;38.14;95489.25;5033617;28;8530;-37
2024/01/23 07:18:20;;;;;;;;;;;;;;;25.75;38.21;95486.50;5032519;28;7253;-37
2024/01/23 07:20:48;;;;;;;;;;;;;;;25.74;38.07;95485.00;5009970;28;6996;-37
2024/01/23 07:23:24;;;;;;;;;;;;;;;25.77;38.20;95494.28;5017169;28;9075;-37
2024/01/23 07:25:59;;;;;;;;;;;;;;;25.73;38.12;95493.75;5015467;28;7000;-37
2024/01/23 07:28:27;;;;;;;;;;;;;;;25.74;38.36;95507.03;5015108;28;7250;-37
2024/01/23 07:31:00;;;;;;;;;;;;;;;25.76;38.47;95510.06;5002743;28;9446;-37
2024/01/23 07:33:28;;;;;;;;;;;;;;;25.74;38.16;95515.31;5014017;28;7088;-37
2024/01/23 07:36:05;;;;;;;;;;;;;;;25.76;37.80;95534.09;5013640;28;8387;-37
2024/01/23 07:38:37;;;;;;;;;;;;;;;25.77;37.79;95539.16;5004964;28;9131;-37
2024/01/23 07:41:34;;;;;;;;;;;;;;;25.78;37.47;95537.13;4993816;28;8182;-37
2024/01/23 07:44:00;;;;;;;;;;;;;;;25.78;38.51;95540.66;4928489;29;7239;-37
2024/01/23 07:46:26;;;;;;;;;;;;;;;25.81;38.41;95544.44;4914246;29;7215;-37
2024/01/23 07:48:52;;;;;;;;;;;;;;;25.80;37.73;95546.44;4937542;29;7254;-37
2024/01/23 07:51:18;;;;;;;;;;;;;;;25.77;38.18;95550.19;4915410;29;8746;-37
2024/01/23 07:54:04;;;;;;;;;;;;;;;25.79;37.87;95552.44;4914189;29;6966;-38
2024/01/23 07:56:50;;;;;;;;;;;;;;;25.83;37.66;95553.75;4941249;28;7083;-37
2024/01/23 07:59:47;;;;;;;;;;;;;;;25.83;38.17;95570.28;4931120;28;7262;-37
2024/01/23 08:02:26;;;;;;;;;;;;;;;25.82;37.35;95566.00;4912388;29;7003;-37
2024/01/23 08:05:04;;;;;;;;;;;;;;;25.83;38.32;95562.00;4902524;29;7279;-37
2024/01/23 08:07:41;;;;;;;;;;;;;;;25.79;38.34;95569.75;4921301;29;8682;-37
2024/01/23 08:10:11;;;;;;;;;;;;;;;25.81;38.35;95581.03;4913968;29;7249;-37
2024/01/23 08:12:46;;;;;;;;;;;;;;;25.80;38.25;95589.75;4920698;29;7280;-37
2024/01/23 08:15:14;;;;;;;;;;;;;;;25.80;38.21;95575.97;4916806;29;8745;-37
2024/01/23 08:18:06;;;;;;;;;;;;;;;25.82;37.84;95579.78;4902118;29;7070;-37
2024/01/23 08:20:42;;;;;;;;;;;;;;;25.80;38.05;95571.25;4941281;28;7223;-37
2024/01/23 08:23:17;;;;;;;;;;;;;;;25.81;37.45;95572.75;4995124;28;7313;-37
2024/01/23 08:25:56;;;;;;;;;;;;;;;25.82;37.92;95579.78;4982250;28;7376;-37
2024/01/23 08:28:24;;;;;;;;;;;;;;;25.80;38.01;95581.50;4961241;28;7272;-37
2024/01/23 08:31:03;;;;;;;;;;;;;;;25.80;37.56;95592.53;4990654;28;9526;-37
2024/01/23 08:33:30;;;;;;;;;;;;;;;25.79;38.25;95605.56;4978009;28;7303;-37
2024/01/23 08:36:01;;;;;;;;;;;;;;;25.82;38.20;95606.56;4951091;28;6996;-37
2024/01/23 08:38:36;;;;;;;;;;;;;;;25.78;37.29;95606.78;5002145;28;7253;-37
2024/01/23 08:41:04;;;;;;;;;;;;;;;25.79;38.19;95616.59;5030882;28;7486;-37
2024/01/23 08:43:32;;;;;;;;;;;;;;;25.77;37.65;95613.56;5049281;28;7223;-37
2024/01/23 08:45:58;;;;;;;;;;;;;;;25.80;38.37;95609.06;5038566;28;7231;-38
2024/01/23 08:48:25;;;;;;;;;;;;;;;25.77;37.81;95619.06;5046380;28;8958;-37
2024/01/23 08:50:53;;;;;;;;;;;;;;;25.78;38.22;95617.81;5039174;28;9480;-37
2024/01/23 08:53:19;;;;;;;;;;;;;;;25.79;37.85;95618.59;5054981;28;7135;-37
2024/01/23 08:55:48;;;;;;;;;;;;;;;25.80;38.41;95629.13;5030554;28;6969;-37
2024/01/23 08:58:20;;;;;;;;;;;;;;;25.79;37.96;95640.63;5053046;28;8751;-37
2024/01/23 09:00:46;;;;;;;;;;;;;;;25.79;38.13;95635.88;5028337;28;7957;-37
2024/01/23 09:03:12;;;;;;;;;;;;;;;25.80;37.32;95645.66;5045821;28;6972;-37
2024/01/23 09:05:41;;;;;;;;;;;;;;;25.79;38.02;95654.41;5036989;28;9166;-37
2024/01/23 09:08:09;;;;;;;;;;;;;;;25.81;38.07;95663.72;5023889;28;8741;-38
2024/01/23 09:11:06;;;;;;;;;;;;;;;25.82;38.06;95665.22;5026399;28;7276;-38
2024/01/23 09:13:34;;;;;;;;;;;;;;;25.82;37.46;95662.47;5012922;28;7232;-37
2024/01/23 09:16:01;;;;;;;;;;;;;;;25.83;37.83;95661.22;4995692;28;7021;-38
2024/01/23 09:18:31;;;;;;;;;;;;;;;25.85;38.14;95638.69;4995908;28;7174;-37
2024/01/23 09:21:22;;;;;;;;;;;;;;;25.87;37.36;95642.50;5008176;28;6936;-38
2024/01/23 09:23:48;;;;;;;;;;;;;;;25.89;37.97;95644.75;5012225;28;6957;-37
2024/01/23 09:26:21;;;;;;;;;;;;;;;25.90;37.69;95660.81;4995593;28;7261;-37
2024/01/23 09:29:02;;;;;;;;;;;;;;;25.90;37.69;95674.59;5010514;28;7254;-38
2024/01/23 09:31:30;;;;;;;;;;;;;;;25.92;38.29;95682.38;5010522;28;7406;-38
2024/01/23 09:34:10;;;;;;;;;;;;;;;25.91;37.59;95673.34;5012652;28;7330;-37
2024/01/23 09:37:07;;;;;;;;;;;;;;;25.93;37.84;95689.41;5026522;28;9136;-37
2024/01/23 09:39:33;;;;;;;;;;;;;;;25.89;37.59;95684.09;4980468;28;9055;-38
2024/01/23 09:42:03;;;;;;;;;;;;;;;25.92;37.86;95682.38;4961252;28;6907;-37
2024/01/23 09:44:31;;;;;;;;;;;;;;;25.92;38.28;95674.88;4961225;28;9376;-37
2024/01/23 09:46:58;;;;;;;;;;;;;;;25.89;38.06;95670.31;4962605;28;9348;-37
2024/01/23 09:49:27;;;;;;;;;;;;;;;25.91;37.42;95675.34;4967067;28;7511;-37
2024/01/23 09:52:07;;;;;;;;;;;;;;;25.90;38.55;95704.91;5011547;28;7037;-38
2024/01/23 09:54:36;;;;;;;;;;;;;;;25.90;37.94;95710.41;4983348;28;7705;-37
2024/01/23 09:57:14;;;;;;;;;;;;;;;25.88;37.79;95706.66;4989586;28;9136;-37
2024/01/23 09:59:51;;;;;;;;;;;;;;;25.89;38.53;95700.66;5001030;28;8042;-38
2024/01/23 10:02:21;;;;;;;;;;;;;;;25.88;38.47;95704.63;5012229;28;8736;-38
2024/01/23 10:04:54;;;;;;;;;;;;;;;25.93;37.71;95712.22;4993683;28;7707;-37
2024/01/23 10:11:00;;;;;;;;;;;;;;;25.96;37.79;95716.78;4957327;28;7268;-37
2024/01/23 10:13:37;;;;;;;;;;;;;;;25.91;37.96;95700.91;4962907;28;7216;-42
2024/01/23 10:16:10;;;;;;;;;;;;;;;25.95;38.38;95695.19;4952996;28;9323;-38
2024/01/23 10:18:54;;;;;;;;;;;;;;;26.00;37.68;95702.78;4959721;28;6971;-38
2024/01/23 10:21:23;;;;;;;;;;;;;;;25.99;37.71;95687.50;4986610;28;7114;-37
2024/01/23 10:23:52;;;;;;;;;;;;;;;26.02;38.29;95695.56;4978657;28;7439;-38
2024/01/23 10:26:24;;;;;;;;;;;;;;;26.01;38.37;95688.50;4986609;28;7917;-38
2024/01/23 10:28:50;;;;;;;;;;;;;;;26.02;38.07;95694.78;4972760;28;8781;-38
2024/01/23 10:31:21;;;;;;;;;;;;;;;26.01;37.54;95690.53;4953593;28;7469;-38
2024/01/23 10:34:02;;;;;;;;;;;;;;;26.02;38.05;95679.00;4950481;28;7233;-37
2024/01/23 10:36:28;;;;;;;;;;;;;;;26.02;37.80;95675.50;4984383;28;8888;-38
2024/01/23 10:39:03;;;;;;;;;;;;;;;26.02;38.22;95676.25;4977016;28;7346;-38
2024/01/23 10:41:33;;;;;;;;;;;;;;;26.04;37.34;95665.50;4950972;28;7265;-41
2024/01/23 10:44:03;;;;;;;;;;;;;;;26.05;37.61;95663.50;4953414;28;7071;-41
2024/01/23 10:46:31;;;;;;;;;;;;;;;26.00;37.50;95667.72;4958456;28;8678;-42
2024/01/23 10:49:02;;;;;;;;;;;;;;;25.99;37.54;95666.19;5023521;28;8963;-44
2024/01/23 10:51:37;;;;;;;;;;;;;;;26.03;38.12;95674.25;5045337;28;7392;-42
2024/01/23 10:54:12;;;;;;;;;;;;;;;26.03;37.98;95669.47;5037424;28;7524;-42
2024/01/23 10:56:57;;;;;;;;;;;;;;;26.02;37.84;95661.69;5065705;28;7661;-41
2024/01/23 10:59:32;;;;;;;;;;;;;;;26.03;37.75;95663.97;5036053;28;7968;-44
2024/01/23 11:02:43;;;;;;;;;;;;;;;26.05;37.70;95664.28;5044762;28;8882;-44
2024/01/23 11:05:09;;;;;;;;;;;;;;;26.01;37.49;95651.94;5048447;28;7134;-42
2024/01/23 11:07:49;;;;;;;;;;;;;;;26.00;37.62;95651.16;5041174;28;7100;-43
2024/01/23 11:10:26;;;;;;;;;;;;;;;26.04;37.78;95650.94;5018558;28;8823;-41
2024/01/23 11:13:22;;;;;;;;;;;;;;;26.05;37.53;95647.72;5042349;28;7056;-42
2024/01/23 11:15:49;;;;;;;;;;;;;;;26.02;37.62;95643.16;5012262;28;7275;-42
2024/01/23 11:18:32;;;;;;;;;;;;;;;26.09;37.99;95640.03;5051167;28;7195;-42
2024/01/23 11:21:26;;;;;;;;;;;;;;;26.11;37.12;95645.06;5046588;28;7237;-42
2024/01/23 11:24:05;;;;;;;;;;;;;;;26.08;37.89;95635.75;5049022;28;9480;-41
2024/01/23 11:26:32;;;;;;;;;;;;;;;26.07;38.17;95631.44;5031458;28;6985;-42
2024/01/23 11:29:13;;;;;;;;;;;;;;;26.06;38.68;95623.66;5037642;28;7079;-41
2024/01/23 11:31:40;;;;;;;;;;;;;;;26.00;38.78;95623.59;5047669;28;7217;-43
2024/01/23 11:34:45;;;;;;;;;;;;;;;26.02;39.21;95615.59;5041269;28;8812;-42
2024/01/23 11:41:11;;;;;;;;;;;;;;;26.06;39.90;95607.09;5036395;28;7091;-43
2024/01/23 11:43:37;;;;;;;;;;;;;;;26.05;40.09;95609.13;5033916;28;7261;-42
2024/01/23 11:46:03;;;;;;;;;;;;;;;26.06;39.46;95593.31;5024913;28;9389;-42
2024/01/23 11:48:32;;;;;;;;;;;;;;;26.10;39.10;95608.44;5025863;28;8774;-42
2024/01/23 11:51:07;;;;;;;;;;;;;;;26.10;39.67;95593.88;5049129;28;7230;-57
2024/01/23 11:53:43;;;;;;;;;;;;;;;26.09;39.62;95592.38;5020786;28;7100;-58
2024/01/23 11:56:30;;;;;;;;;;;;;;;26.12;39.84;95594.19;5022115;28;7268;-57
2024/01/23 11:58:59;;;;;;;;;;;;;;;26.19;40.11;95595.75;5051245;28;9447;-57
2024/01/23 12:02:00;;;;;;;;;;;;;;;26.28;39.34;95596.34;5053176;28;7327;-58
2024/01/23 12:04:35;;;;;;;;;;;;;;;26.30;39.54;95591.09;5052876;28;7248;-57
2024/01/23 12:07:12;;;;;;;;;;;;;;;26.30;39.13;95591.09;5015418;28;7564;-57
2024/01/23 12:09:50;;;;;;;;;;;;;;;26.30;39.12;95585.56;5024754;28;8489;-58
2024/01/23 12:12:16;;;;;;;;;;;;;;;26.30;38.73;95587.56;5033121;28;7054;-58
2024/01/23 12:14:51;;;;;;;;;;;;;;;26.29;38.87;95577.78;5022703;28;8730;-58
2024/01/23 12:17:27;;;;;;;;;;;;;;;26.26;38.86;95578.75;5031338;28;7521;-58
2024/01/23 12:20:20;;;;;;;;;;;;;;;26.24;38.78;95579.25;5041432;28;8280;-58
2024/01/23 12:22:57;;;;;;;;;;;;;;;26.22;38.47;95578.22;5050016;28;9073;-58
2024/01/23 12:25:42;;;;;;;;;;;;;;;26.21;38.74;95576.72;5044431;28;7255;-57
2024/01/23 12:28:23;;;;;;;;;;;;;;;26.19;38.75;95573.69;5038905;28;7374;-58
2024/01/23 12:30:58;;;;;;;;;;;;;;;26.20;38.79;95581.47;5026151;28;7256;-58
2024/01/23 12:33:26;;;;;;;;;;;;;;;26.24;38.04;95589.53;5034673;28;9633;-58
2024/01/23 12:36:03;;;;;;;;;;;;;;;26.20;38.02;95584.22;5045864;28;7552;-57
2024/01/23 12:38:40;;;;;;;;;;;;;;;26.26;38.77;95590.56;5040913;28;9074;-57
2024/01/23 12:41:16;;;;;;;;;;;;;;;26.25;38.31;95585.53;5030108;28;7732;-57
2024/01/23 12:43:47;;;;;;;;;;;;;;;26.25;37.86;95580.78;5026252;28;7299;-57
2024/01/23 12:46:16;;;;;;;;;;;;;;;26.28;38.35;95588.06;5037663;28;7012;-57
2024/01/23 12:48:45;;;;;;;;;;;;;;;26.28;38.36;95590.06;5047188;28;7332;-57
2024/01/23 12:51:16;;;;;;;;;;;;;;;26.29;38.50;95588.84;5034562;28;7266;-58
2024/01/23 12:53:41;;;;;;;;;;;;;;;26.28;38.08;95581.78;5060470;28;7357;-57
2024/01/23 12:56:09;;;;;;;;;;;;;;;26.26;38.07;95590.56;5025940;28;7293;-58
2024/01/23 12:58:45;;;;;;;;;;;;;;;26.29;38.63;95605.38;5046971;28;9128;-58
2024/01/23 13:01:21;;;;;;;;;;;;;;;26.28;39.27;95604.63;5040445;28;9191;-56
2024/01/23 13:03:50;;;;;;;;;;;;;;;26.28;37.97;95603.84;5051196;28;7254;-55
2024/01/23 13:06:33;;;;;;;;;;;;;;;26.30;37.97;95604.13;5034765;28;7000;-55
2024/01/23 13:09:03;;;;;;;;;;;;;;;26.30;38.61;95604.13;5027384;28;7249;-56
2024/01/23 13:11:31;;;;;;;;;;;;;;;26.30;38.25;95606.88;5017989;28;7198;-55
2024/01/23 13:13:57;;;;;;;;;;;;;;;26.29;38.13;95600.63;5032513;28;7309;-55
2024/01/23 13:16:23;;;;;;;;;;;;;;;26.26;38.22;95598.06;5031975;28;7978;-56
2024/01/23 13:18:49;;;;;;;;;;;;;;;26.24;38.15;95606.06;5048814;28;9078;-56
2024/01/23 13:21:18;;;;;;;;;;;;;;;26.26;38.20;95595.31;5033655;28;7292;-54
2024/01/23 13:23:46;;;;;;;;;;;;;;;26.30;38.43;95598.59;5024109;28;7922;-56
2024/01/23 13:26:17;;;;;;;;;;;;;;;26.24;38.63;95603.31;5054771;28;9507;-56
2024/01/23 13:28:57;;;;;;;;;;;;;;;26.27;38.32;95605.88;5023580;28;7236;-56
2024/01/23 13:31:24;;;;;;;;;;;;;;;26.25;37.95;95599.31;5009891;28;7086;-55
2024/01/23 13:33:53;;;;;;;;;;;;;;;26.23;38.05;95607.31;5047569;28;8429;-55
2024/01/23 13:36:31;;;;;;;;;;;;;;;26.22;37.45;95597.53;5032532;28;7239;-55
2024/01/23 13:38:57;;;;;;;;;;;;;;;26.21;37.70;95598.78;5028807;28;7330;-56
2024/01/23 13:41:23;;;;;;;;;;;;;;;26.21;37.85;95593.28;5051969;28;7458;-56
2024/01/23 13:43:54;;;;;;;;;;;;;;;26.19;37.49;95595.75;5023933;28;8850;-56
2024/01/23 13:46:20;;;;;;;;;;;;;;;26.16;37.87;95594.72;5015282;28;7329;-56